Hlavní strana
METAR-TAF:

METAR-TAF

Letiště :

Kristianstad, Švédsko

zeměpisná šířka: 55-55N, zeměpisná délka: 014-05E, výška: 23 m

Aktuální stav počasí

Zpráva byla vytvořena před 40 minutami, v 00:20 UTC
Jihozápadní vítr 7 kt
Teplota 12°C
Vlhkost vzduchu 100%
Tlak 1018 hPa
Viditelnost: 6000 m

METAR: ESMK 220020Z AUTO 23007KT 6000 FEW004/// BKN005/// OVC016/// 12/12 Q1018

Čas: 03:00 (01:00 UTC)

Předpověď počasí

Zpráva byla vytvořena před 7 hodinami a 57 minutami, v 17:03 UTC
Předpověď platná od 21 v 18 UTC do 21 v 20 UTC
Východoseverovýchodní vítr 7 kt
Viditelnost: 6000 m
Polojasno ve výšce 600 ft
slabý déšť, mrholení
Změna
od 21 v 18 UTC do 21 v 20 UTC
Viditelnost: 2000 m
Oblačno až skoro zataženo ve výšce 400 ft
kouřmo

TAF: ESMK 211703Z 2118/2120 06007KT 6000 -RADZ SCT006 BECMG 2118/2120 2000 BR BKN004

Stav a předpovědi počasí z více než 4 000 letišť (zprávy METAR a TAF).

Červené a žluté tečky na mapě představují dostupné meteorologické stanice.

Když kurzor umístíte na tečku, zobrazí se název stanice.

Pak kliknutím zobrazíte stav a předpověď počasí.

Chcete-li změnit mapu, kliknutím na zelené tlačítko se znaménkem +mapu přiblížíte, kliknutím na zelené tlačítko se znaménkem – mapu oddálíte a kliknutím na zelené šipky přejdete na sousední mapy.


METAR-TAF: